Time;durP1;ratioP1;P1;durP2;ratioP2;P2;SDS_P1;SDS_P2;PMS_P1;PMS_P2;Temp;Humidity;BMP_temperature;BMP_pressure;BME280_temperature;BME280_humidity;BME280_pressure;Samples;Min_cycle;Max_cycle;Signal;HPM_P1;HPM_P2
2022/12/11 00:01:55;;;;;;;;;30.00;21.75;;;;;1.91;62.22;100801.38;5059873;28;45930;-44
2022/12/11 00:04:22;;;;;;;;;35.75;27.00;;;;;1.97;62.30;100797.16;5059977;28;45291;-47
2022/12/11 00:06:50;;;;;;;;;32.50;30.25;;;;;1.98;62.28;100786.84;5060070;28;45710;-45
2022/12/11 00:09:19;;;;;;;;;35.25;30.00;;;;;1.98;62.11;100796.34;5059763;28;45570;-45
2022/12/11 00:11:45;;;;;;;;;38.75;28.50;;;;;1.98;62.55;100792.00;5059658;28;45330;-46
2022/12/11 00:14:12;;;;;;;;;33.00;27.25;;;;;1.92;62.51;100797.94;5059969;28;45220;-45
2022/12/11 00:16:37;;;;;;;;;41.25;31.00;;;;;1.92;62.43;100787.56;5059994;28;45176;-46
2022/12/11 00:19:03;;;;;;;;;33.00;28.75;;;;;1.90;62.54;100778.00;5059944;28;45319;-45
2022/12/11 00:21:28;;;;;;;;;26.00;23.50;;;;;1.93;62.10;100772.91;5075281;28;46977;-46
2022/12/11 00:23:54;;;;;;;;;40.75;29.50;;;;;1.91;62.64;100774.56;5075210;28;46038;-45
2022/12/11 00:26:19;;;;;;;;;27.50;20.25;;;;;1.88;62.20;100775.38;5059890;28;45773;-45
2022/12/11 00:28:45;;;;;;;;;25.50;23.00;;;;;1.82;62.36;100770.06;5059673;28;45528;-44
2022/12/11 00:31:15;;;;;;;;;27.75;25.50;;;;;1.87;62.74;100778.81;5059552;28;46310;-45
2022/12/11 00:33:43;;;;;;;;;32.50;26.75;;;;;1.89;62.69;100764.19;5059699;28;45356;-47
2022/12/11 00:36:31;;;;;;;;;30.75;24.75;;;;;1.85;62.18;100761.47;5059720;28;45252;-47
2022/12/11 00:38:56;;;;;;;;;29.50;26.75;;;;;1.86;62.66;100761.53;5059611;28;45790;-45
2022/12/11 00:41:22;;;;;;;;;30.25;23.00;;;;;1.86;62.43;100758.94;5060316;28;45558;-45
2022/12/11 00:43:47;;;;;;;;;21.25;18.00;;;;;1.88;62.11;100753.78;5078771;28;45340;-46
2022/12/11 00:46:13;;;;;;;;;32.25;20.50;;;;;1.87;62.10;100763.25;5063059;28;45493;-47
2022/12/11 00:48:38;;;;;;;;;22.00;20.50;;;;;1.77;62.64;100759.63;5056502;28;45311;-44
2022/12/11 00:51:05;;;;;;;;;31.00;21.25;;;;;1.82;62.77;100761.44;5061427;28;45333;-47
2022/12/11 00:53:30;;;;;;;;;24.50;21.00;;;;;1.81;62.47;100760.53;5063147;28;45302;-45
2022/12/11 00:55:56;;;;;;;;;27.50;25.00;;;;;1.81;62.30;100762.25;5062659;28;45210;-44
2022/12/11 00:58:21;;;;;;;;;28.75;25.00;;;;;1.79;62.20;100749.28;5063130;28;45464;-45
2022/12/11 01:00:48;;;;;;;;;26.50;22.50;;;;;1.82;62.28;100758.84;5062722;28;45824;-45
2022/12/11 01:03:15;;;;;;;;;26.00;23.75;;;;;1.83;62.13;100755.41;5062856;28;45209;-45
2022/12/11 01:05:41;;;;;;;;;35.50;26.25;;;;;1.79;62.55;100750.13;5062736;28;45357;-44
2022/12/11 01:08:07;;;;;;;;;34.00;27.00;;;;;1.77;62.58;100749.25;5062812;28;45402;-44
2022/12/11 01:10:33;;;;;;;;;35.50;32.50;;;;;1.77;62.40;100743.16;5062447;28;46024;-47
2022/12/11 01:13:05;;;;;;;;;25.25;21.75;;;;;1.76;62.52;100749.19;5078218;28;45450;-45
2022/12/11 01:15:34;;;;;;;;;29.00;21.75;;;;;1.77;62.24;100751.84;5078318;28;45370;-45
2022/12/11 01:17:59;;;;;;;;;31.50;22.75;;;;;1.76;62.34;100751.78;5062631;28;45383;-44
2022/12/11 01:20:26;;;;;;;;;30.50;24.25;;;;;1.78;62.51;100742.34;5062718;28;45807;-45
2022/12/11 01:22:54;;;;;;;;;27.75;22.50;;;;;1.73;62.69;100746.53;5062415;28;45275;-45
2022/12/11 01:25:20;;;;;;;;;26.50;22.25;;;;;1.77;62.35;100748.34;5077982;28;45230;-44
2022/12/11 01:27:45;;;;;;;;;27.25;22.75;;;;;1.76;62.27;100739.72;5062283;28;45486;-44
2022/12/11 01:30:13;;;;;;;;;33.25;26.50;;;;;1.75;62.33;100740.56;5062489;28;46044;-44
2022/12/11 01:32:38;;;;;;;;;31.50;22.50;;;;;1.77;62.23;100748.34;5062362;28;45490;-47
2022/12/11 01:35:06;;;;;;;;;31.50;23.50;;;;;1.75;62.20;100743.16;5062758;28;45219;-48
2022/12/11 01:37:31;;;;;;;;;26.50;22.25;;;;;1.70;62.43;100741.28;5062299;28;45478;-44
2022/12/11 01:39:57;;;;;;;;;21.50;18.00;;;;;1.70;62.37;100743.88;5062124;28;45357;-46
2022/12/11 01:42:24;;;;;;;;;28.75;25.00;;;;;1.69;62.32;100747.34;5062218;28;45235;-45
2022/12/11 01:44:49;;;;;;;;;24.75;22.00;;;;;1.67;62.29;100751.59;5070105;28;45474;-44
2022/12/11 01:47:14;;;;;;;;;26.50;21.50;;;;;1.68;62.58;100750.75;5056418;28;45437;-45
2022/12/11 01:49:40;;;;;;;;;26.00;22.50;;;;;1.64;62.77;100755.00;5054155;28;46117;-46
2022/12/11 01:52:17;;;;;;;;;28.75;23.75;;;;;1.58;62.84;100747.94;5060510;28;45427;-45
2022/12/11 01:54:44;;;;;;;;;28.00;23.25;;;;;1.59;62.71;100754.88;5061554;28;45305;-46
2022/12/11 01:57:12;;;;;;;;;26.25;20.50;;;;;1.54;62.48;100764.25;5061896;28;45302;-47
2022/12/11 01:59:41;;;;;;;;;26.75;18.75;;;;;1.53;62.57;100761.63;5061983;28;45239;-47
2022/12/11 02:02:20;;;;;;;;;32.50;24.25;;;;;1.46;62.75;100760.63;5061992;28;45344;-47
2022/12/11 02:04:47;;;;;;;;;23.25;21.00;;;;;1.49;62.63;100754.66;5062107;28;45146;-45
2022/12/11 02:07:12;;;;;;;;;21.75;17.75;;;;;1.42;62.68;100749.31;5061834;28;45281;-44
2022/12/11 02:09:41;;;;;;;;;25.75;18.25;;;;;1.44;62.48;100757.13;5061481;28;46126;-47
2022/12/11 02:12:24;;;;;;;;;22.50;17.25;;;;;1.44;62.70;100762.31;5061642;28;45323;-49
2022/12/11 02:14:49;;;;;;;;;9.25;9.25;;;;;1.44;62.43;100746.75;5061987;28;45310;-46
2022/12/11 02:17:29;;;;;;;;;20.00;18.50;;;;;1.46;62.76;100750.28;5061976;28;45214;-48
2022/12/11 02:20:19;;;;;;;;;28.50;24.00;;;;;1.44;62.50;100746.75;5061563;28;46177;-44
2022/12/11 02:23:06;;;;;;;;;24.25;22.25;;;;;1.38;62.76;100744.03;5061901;28;45251;-48
2022/12/11 02:25:36;;;;;;;;;25.50;21.75;;;;;1.39;62.69;100736.28;5061512;28;45310;-46
2022/12/11 02:28:22;;;;;;;;;28.50;20.75;;;;;1.36;62.71;100737.94;5061422;28;45496;-47
2022/12/11 02:30:54;;;;;;;;;18.25;13.00;;;;;1.39;62.53;100735.44;5061540;28;46179;-49
2022/12/11 02:33:27;;;;;;;;;12.75;12.75;;;;;1.38;62.69;100731.06;5061560;28;45251;-49
2022/12/11 02:35:53;;;;;;;;;26.25;18.50;;;;;1.40;62.66;100729.41;5077092;28;45332;-45
2022/12/11 02:38:27;;;;;;;;;18.25;14.25;;;;;1.40;62.79;100721.63;5061596;28;45464;-47
2022/12/11 02:40:56;;;;;;;;;20.00;16.25;;;;;1.38;62.64;100712.94;5060871;28;45370;-46
2022/12/11 02:43:24;;;;;;;;;36.00;26.25;;;;;1.36;62.52;100714.63;5061268;28;45287;-46
2022/12/11 02:45:50;;;;;;;;;21.00;20.25;;;;;1.27;62.76;100713.59;5061379;28;45303;-46
2022/12/11 02:48:18;;;;;;;;;21.75;18.00;;;;;1.29;62.68;100717.06;5057790;28;45389;-47
2022/12/11 02:50:47;;;;;;;;;22.00;18.00;;;;;1.24;62.58;100717.81;5056970;28;45334;-47
2022/12/11 02:53:16;;;;;;;;;28.75;18.00;;;;;1.22;62.70;100720.38;5061166;28;45411;-45
2022/12/11 02:55:43;;;;;;;;;19.00;17.75;;;;;1.17;62.36;100721.09;5061100;28;45322;-47
2022/12/11 02:58:18;;;;;;;;;22.75;16.75;;;;;1.21;62.64;100722.91;5061002;28;45545;-48
2022/12/11 03:00:44;;;;;;;;;25.75;17.75;;;;;1.13;62.73;100733.97;5060912;28;46360;-49
2022/12/11 03:03:10;;;;;;;;;20.00;17.00;;;;;1.10;62.93;100722.66;5061030;28;45345;-48
2022/12/11 03:05:36;;;;;;;;;13.00;10.50;;;;;1.01;62.88;100730.19;5059533;28;45300;-47
2022/12/11 03:08:01;;;;;;;;;25.25;19.00;;;;;1.05;62.97;100719.09;5060959;28;45655;-44
2022/12/11 03:10:27;;;;;;;;;21.75;17.00;;;;;1.09;62.76;100724.34;5060427;28;45336;-49
2022/12/11 03:12:56;;;;;;;;;16.00;10.75;;;;;1.10;62.43;100717.47;5076413;28;45322;-44
2022/12/11 03:15:40;;;;;;;;;17.25;14.00;;;;;1.08;62.59;100708.78;5059594;28;45411;-49
2022/12/11 03:18:19;;;;;;;;;24.50;18.00;;;;;1.05;62.84;100712.19;5060721;28;45368;-48
2022/12/11 03:20:55;;;;;;;;;14.25;13.50;;;;;1.02;62.56;100719.00;5060784;28;46252;-43
2022/12/11 03:23:45;;;;;;;;;13.50;9.75;;;;;0.98;62.61;100705.09;5059173;28;45447;-44
2022/12/11 03:26:13;;;;;;;;;13.50;11.75;;;;;0.99;62.80;100711.16;5060694;28;45418;-45
2022/12/11 03:28:47;;;;;;;;;14.25;10.00;;;;;0.97;62.80;100708.56;5060745;28;45329;-45
2022/12/11 03:31:27;;;;;;;;;25.00;17.25;;;;;1.00;62.76;100713.78;5060480;28;45982;-45
2022/12/11 03:33:55;;;;;;;;;21.25;12.50;;;;;1.00;62.70;100711.19;5060666;28;45279;-45
2022/12/11 03:36:26;;;;;;;;;15.75;13.75;;;;;1.00;62.71;100703.44;5060575;28;45424;-46
2022/12/11 03:38:59;;;;;;;;;14.00;13.50;;;;;0.96;62.85;100706.78;5060818;27;45244;-47
2022/12/11 03:41:26;;;;;;;;;19.50;13.50;;;;;0.91;62.79;100709.25;5058964;28;45522;-47
2022/12/11 03:43:55;;;;;;;;;15.75;15.00;;;;;0.88;62.80;100710.91;5060382;28;45327;-46
2022/12/11 03:46:28;;;;;;;;;18.75;16.00;;;;;0.89;62.73;100705.75;5047270;28;45321;-46
2022/12/11 03:48:59;;;;;;;;;20.75;17.00;;;;;0.87;62.67;100707.44;5060223;28;45222;-44
2022/12/11 03:51:25;;;;;;;;;20.75;14.00;;;;;0.89;62.72;100712.66;5060154;28;45299;-47
2022/12/11 03:53:52;;;;;;;;;16.50;13.75;;;;;0.85;62.53;100711.69;5075692;28;45299;-44
2022/12/11 03:56:20;;;;;;;;;19.50;11.75;;;;;0.86;62.66;100713.44;5060432;28;45220;-45
2022/12/11 03:58:46;;;;;;;;;14.75;12.75;;;;;0.82;62.65;100709.03;5060135;28;45450;-46
2022/12/11 04:01:11;;;;;;;;;16.75;13.00;;;;;0.84;62.79;100707.34;5060191;28;46148;-49
2022/12/11 04:03:37;;;;;;;;;20.50;13.00;;;;;0.78;62.66;100702.91;5059930;28;45320;-45
2022/12/11 04:06:02;;;;;;;;;17.50;14.25;;;;;0.77;62.79;100695.13;5060278;28;45225;-45
2022/12/11 04:08:28;;;;;;;;;14.75;13.00;;;;;0.78;62.64;100702.91;5059764;28;45409;-45
2022/12/11 04:11:35;;;;;;;;;13.25;10.50;;;;;0.80;63.13;100700.34;5060075;28;46103;-44
2022/12/11 04:13:41;;;;;;;;;18.00;16.00;;;;;0.76;62.58;100696.81;5062143;28;45555;-45
2022/12/11 04:16:07;;;;;;;;;23.75;17.00;;;;;0.73;62.96;100694.16;5059663;28;45208;-45
2022/12/11 04:24:16;;;;;;;;;20.50;12.75;;;;;0.74;62.88;100697.63;5059644;28;45266;-44
2022/12/11 04:26:46;;;;;;;;;14.50;14.50;;;;;0.73;62.77;100689.00;5059885;28;45440;-47
2022/12/11 04:29:12;;;;;;;;;13.50;9.75;;;;;0.75;63.15;100694.19;5075532;28;45462;-45
2022/12/11 04:31:38;;;;;;;;;17.50;16.25;;;;;0.77;62.84;100692.53;5059597;28;46229;-49
2022/12/11 04:34:04;;;;;;;;;21.75;17.50;;;;;0.77;62.84;100687.34;5059745;27;45219;-46
2022/12/11 04:36:29;;;;;;;;;15.75;14.50;;;;;0.75;62.59;100681.25;5059748;28;45479;-45
2022/12/11 04:38:54;;;;;;;;;19.75;15.50;;;;;0.66;62.90;100673.28;5059515;28;45173;-45
2022/12/11 04:41:20;;;;;;;;;19.25;14.25;;;;;0.68;62.89;100682.81;5059356;28;45197;-46
2022/12/11 04:43:45;;;;;;;;;14.25;11.25;;;;;0.70;62.73;100675.09;5059593;28;45204;-46
2022/12/11 04:46:22;;;;;;;;;16.00;12.00;;;;;0.67;62.71;100682.75;5059636;28;45543;-45
2022/12/11 04:48:48;;;;;;;;;20.50;14.00;;;;;0.67;63.06;100680.19;5051876;28;45421;-45
2022/12/11 04:51:14;;;;;;;;;12.25;8.25;;;;;0.66;62.79;100674.16;5059331;28;45557;-44
2022/12/11 04:53:40;;;;;;;;;15.00;14.50;;;;;0.57;62.91;100669.63;5074884;28;45323;-46
2022/12/11 04:56:07;;;;;;;;;20.25;12.00;;;;;0.56;62.91;100669.59;5059799;28;45245;-48
2022/12/11 04:58:34;;;;;;;;;19.25;14.50;;;;;0.56;63.02;100667.00;5059460;28;45295;-47
2022/12/11 05:01:00;;;;;;;;;17.00;13.25;;;;;0.54;62.70;100666.97;5059488;28;46402;-45
2022/12/11 05:03:25;;;;;;;;;13.75;11.50;;;;;0.53;62.70;100665.22;5059373;28;45486;-45
2022/12/11 05:05:52;;;;;;;;;20.00;13.25;;;;;0.52;62.85;100663.44;5059600;28;45378;-45
2022/12/11 05:08:19;;;;;;;;;14.75;10.25;;;;;0.50;62.91;100669.41;5059486;28;45295;-45
2022/12/11 05:10:53;;;;;;;;;17.75;12.75;;;;;0.44;63.06;100665.84;5059066;28;45337;-46
2022/12/11 05:13:18;;;;;;;;;14.25;12.25;;;;;0.41;62.95;100659.72;5059055;28;45496;-46
2022/12/11 05:15:44;;;;;;;;;9.50;9.25;;;;;0.37;62.75;100660.47;5059573;28;45378;-45
2022/12/11 05:18:09;;;;;;;;;16.50;12.75;;;;;0.32;63.03;100658.63;5059127;28;45319;-45
2022/12/11 05:20:34;;;;;;;;;18.25;15.25;;;;;0.35;62.94;100659.56;5059461;28;45302;-47
2022/12/11 05:23:00;;;;;;;;;19.75;19.75;;;;;0.29;63.04;100655.06;5058946;28;45299;-44
2022/12/11 05:25:25;;;;;;;;;16.00;16.00;;;;;0.30;62.97;100655.16;5059034;28;45548;-45
2022/12/11 05:27:50;;;;;;;;;18.75;16.00;;;;;0.29;62.82;100640.47;5059187;28;45303;-48
2022/12/11 05:30:16;;;;;;;;;20.25;16.25;;;;;0.34;62.65;100653.53;5062618;28;45604;-45
2022/12/11 05:32:41;;;;;;;;;20.00;17.25;;;;;0.37;62.92;100653.59;5062539;28;45244;-47
2022/12/11 05:35:06;;;;;;;;;18.25;16.75;;;;;0.39;62.72;100653.63;5078352;27;45194;-48
2022/12/11 05:37:33;;;;;;;;;18.75;15.00;;;;;0.34;62.97;100652.63;5062630;28;45378;-44
2022/12/11 05:39:58;;;;;;;;;16.00;14.25;;;;;0.35;63.37;100656.97;5062092;28;46323;-45
2022/12/11 05:42:24;;;;;;;;;21.25;19.25;;;;;0.37;63.03;100657.91;5062195;28;45263;-45
2022/12/11 05:44:49;;;;;;;;;28.25;18.25;;;;;0.39;62.97;100659.69;5062453;28;45199;-45
2022/12/11 05:47:15;;;;;;;;;20.75;16.75;;;;;0.38;62.81;100650.16;5062299;28;45312;-45
2022/12/11 05:49:40;;;;;;;;;23.50;19.25;;;;;0.41;62.80;100649.38;5054300;28;46385;-44
2022/12/11 05:52:06;;;;;;;;;26.50;19.75;;;;;0.40;62.70;100647.63;5061906;28;45420;-44
2022/12/11 05:54:31;;;;;;;;;29.25;19.50;;;;;0.38;63.22;100644.09;5060797;28;45334;-44
2022/12/11 05:56:56;;;;;;;;;28.75;19.75;;;;;0.42;62.39;100657.16;5062007;28;45255;-46
2022/12/11 05:59:21;;;;;;;;;28.00;21.25;;;;;0.42;62.98;100648.53;5060812;28;46344;-44
2022/12/11 06:01:47;;;;;;;;;28.75;24.75;;;;;0.40;62.91;100656.22;5061995;28;45363;-44
2022/12/11 06:04:13;;;;;;;;;24.75;23.75;;;;;0.37;62.82;100642.38;5062055;28;45723;-45
2022/12/11 06:06:39;;;;;;;;;24.00;23.00;;;;;0.37;63.15;100651.00;5062006;28;45459;-44
2022/12/11 06:09:05;;;;;;;;;34.25;26.25;;;;;0.39;62.96;100644.16;5061654;28;47110;-45
2022/12/11 06:11:32;;;;;;;;;33.75;23.00;;;;;0.37;63.02;100643.25;5061698;28;45188;-45
2022/12/11 06:13:58;;;;;;;;;32.75;25.75;;;;;0.36;62.82;100640.63;5062082;28;45142;-45
2022/12/11 06:16:23;;;;;;;;;32.00;26.00;;;;;0.37;63.02;100642.38;5061903;28;45358;-44
2022/12/11 06:18:49;;;;;;;;;27.50;23.50;;;;;0.37;62.84;100642.38;5077331;28;47384;-44
2022/12/11 06:21:29;;;;;;;;;23.50;19.75;;;;;0.32;63.15;100645.69;5061820;28;45185;-44
2022/12/11 06:23:58;;;;;;;;;32.00;24.75;;;;;0.32;63.02;100650.88;5061687;28;45448;-45
2022/12/11 06:26:25;;;;;;;;;35.50;30.50;;;;;0.32;63.06;100650.00;5061539;28;45386;-45
2022/12/11 06:28:50;;;;;;;;;28.00;24.75;;;;;0.30;63.29;100636.16;5061646;28;45288;-45
2022/12/11 06:31:17;;;;;;;;;38.00;31.50;;;;;0.32;63.07;100640.53;5061343;28;45378;-46
2022/12/11 06:33:42;;;;;;;;;30.00;23.50;;;;;0.33;62.87;100638.84;5061714;28;45248;-45
2022/12/11 06:36:11;;;;;;;;;38.00;28.25;;;;;0.32;62.92;100624.16;5061465;27;45318;-46
2022/12/11 06:38:37;;;;;;;;;39.75;33.50;;;;;0.32;62.94;100627.59;5060867;28;46978;-49
2022/12/11 06:41:04;;;;;;;;;37.50;30.50;;;;;0.33;63.04;100623.31;5060927;28;45708;-46
2022/12/11 06:43:30;;;;;;;;;43.25;33.75;;;;;0.36;62.65;100625.13;5061508;28;45445;-46
2022/12/11 06:45:56;;;;;;;;;45.25;32.50;;;;;0.36;63.03;100620.81;5061201;28;45422;-48
2022/12/11 06:48:21;;;;;;;;;38.00;29.50;;;;;0.39;63.13;100625.19;5056935;28;45427;-45
2022/12/11 06:50:47;;;;;;;;;17.75;11.00;;;;;0.38;63.10;100626.91;5058079;28;45350;-45
2022/12/11 06:53:13;;;;;;;;;31.75;25.75;;;;;0.37;63.09;100614.81;5061091;28;45390;-49
2022/12/11 06:55:40;;;;;;;;;35.25;27.75;;;;;0.38;62.82;100619.16;5060948;28;45410;-46
2022/12/11 06:58:06;;;;;;;;;29.00;28.00;;;;;0.41;63.31;100614.03;5061037;28;45474;-47
2022/12/11 07:00:34;;;;;;;;;36.50;29.25;;;;;0.38;62.95;100613.97;5061020;28;45206;-46
2022/12/11 07:02:59;;;;;;;;;30.50;28.00;;;;;0.40;62.95;100616.59;5061116;28;45574;-47
2022/12/11 07:05:24;;;;;;;;;36.00;31.50;;;;;0.40;63.16;100616.59;5060787;28;45375;-45
2022/12/11 07:07:52;;;;;;;;;32.25;27.25;;;;;0.39;63.08;100604.50;5061211;28;45378;-49
2022/12/11 07:10:18;;;;;;;;;35.25;30.00;;;;;0.34;62.78;100621.59;5060580;28;45646;-45
2022/12/11 07:12:43;;;;;;;;;30.25;24.75;;;;;0.34;62.90;100619.91;5061051;28;45317;-46
2022/12/11 07:15:09;;;;;;;;;28.50;25.25;;;;;0.28;63.05;100618.03;5060727;28;45382;-47
2022/12/11 07:17:34;;;;;;;;;34.75;29.75;;;;;0.34;62.84;100621.59;5060672;28;46735;-45
2022/12/11 07:19:59;;;;;;;;;40.00;30.50;;;;;0.33;62.77;100636.25;5060615;28;45352;-45
2022/12/11 07:22:25;;;;;;;;;33.25;29.00;;;;;0.26;62.95;100627.44;5060946;28;45244;-45
2022/12/11 07:24:50;;;;;;;;;32.75;26.50;;;;;0.32;62.83;100629.31;5076270;27;45455;-47
2022/12/11 07:27:15;;;;;;;;;45.50;31.75;;;;;0.32;62.89;100632.78;5060610;28;46167;-44
2022/12/11 07:29:41;;;;;;;;;28.50;28.50;;;;;0.34;62.93;100631.94;5060621;28;45136;-48
2022/12/11 07:32:06;;;;;;;;;28.00;23.00;;;;;0.30;62.82;100631.88;5060758;28;45291;-46
2022/12/11 07:34:31;;;;;;;;;27.25;21.50;;;;;0.28;62.56;100637.84;5060598;28;45635;-45
2022/12/11 07:36:57;;;;;;;;;42.25;34.25;;;;;0.28;63.25;100632.66;5060292;28;46210;-45
2022/12/11 07:39:22;;;;;;;;;37.50;35.50;;;;;0.28;62.73;100646.47;5075743;28;45929;-48
2022/12/11 07:41:48;;;;;;;;;43.25;30.25;;;;;0.27;62.85;100644.72;5060514;28;45331;-46
2022/12/11 07:44:13;;;;;;;;;32.00;29.50;;;;;0.26;62.80;100647.25;5060273;28;45586;-53
2022/12/11 07:46:39;;;;;;;;;26.25;21.50;;;;;0.22;62.88;100643.72;5059257;28;45335;-46
2022/12/11 07:49:05;;;;;;;;;36.75;30.25;;;;;0.23;62.82;100647.19;5052375;28;45478;-45
2022/12/11 07:51:34;;;;;;;;;42.00;31.50;;;;;0.24;62.76;100641.16;5059328;28;45339;-46
2022/12/11 07:54:17;;;;;;;;;31.75;27.50;;;;;0.25;62.84;100638.63;5059892;27;45318;-45
2022/12/11 07:56:44;;;;;;;;;36.00;28.00;;;;;0.25;62.91;100638.63;5060181;28;46216;-45
2022/12/11 07:59:09;;;;;;;;;39.50;29.25;;;;;0.27;62.93;100639.53;5060085;28;45354;-47
2022/12/11 08:01:35;;;;;;;;;40.50;32.50;;;;;0.27;62.62;100639.53;5060269;28;45318;-47
2022/12/11 08:04:02;;;;;;;;;37.00;30.50;;;;;0.30;62.89;100644.81;5059988;28;45453;-47
2022/12/11 08:06:34;;;;;;;;;36.75;26.00;;;;;0.33;62.72;100646.59;5059497;28;46250;-48
2022/12/11 08:09:02;;;;;;;;;33.25;24.25;;;;;0.30;63.05;100631.88;5059789;28;45319;-46
2022/12/11 08:11:28;;;;;;;;;35.75;27.00;;;;;0.31;62.80;100643.06;5059984;28;45268;-45
2022/12/11 08:13:54;;;;;;;;;32.00;27.75;;;;;0.28;63.02;100633.53;5060139;28;45268;-46
2022/12/11 08:16:19;;;;;;;;;30.50;29.00;;;;;0.31;62.66;100638.81;5059884;28;45323;-44
2022/12/11 08:18:47;;;;;;;;;37.50;33.25;;;;;0.27;62.77;100629.19;5060113;28;45311;-48
2022/12/11 08:21:15;;;;;;;;;30.00;23.50;;;;;0.18;62.67;100625.50;5059897;28;45287;-47
2022/12/11 08:23:41;;;;;;;;;38.75;28.25;;;;;0.30;62.87;100644.81;5059788;28;45317;-48
2022/12/11 08:26:15;;;;;;;;;40.75;28.50;;;;;0.28;62.66;100645.59;5059696;28;46141;-46
2022/12/11 08:28:40;;;;;;;;;37.00;31.25;;;;;0.27;62.90;100644.72;5059788;28;45347;-49
2022/12/11 08:31:08;;;;;;;;;37.50;31.25;;;;;0.27;62.77;100644.72;5075370;28;45536;-47
2022/12/11 08:33:35;;;;;;;;;39.00;35.75;;;;;0.28;62.91;100645.59;5059819;28;45449;-45
2022/12/11 08:36:05;;;;;;;;;37.25;30.75;;;;;0.30;62.97;100647.38;5059526;28;45197;-52
2022/12/11 08:38:31;;;;;;;;;39.50;30.25;;;;;0.29;62.72;100640.47;5059671;28;45165;-49
2022/12/11 08:40:56;;;;;;;;;34.50;29.25;;;;;0.26;63.03;100644.66;5059717;28;45500;-49
2022/12/11 08:43:22;;;;;;;;;29.50;24.25;;;;;0.27;62.67;100646.44;5059792;28;45452;-49
2022/12/11 08:45:47;;;;;;;;;34.25;25.25;;;;;0.29;62.77;100647.31;5059272;28;45303;-49
2022/12/11 08:48:12;;;;;;;;;36.75;31.00;;;;;0.28;62.55;100656.81;5056681;28;45294;-47
2022/12/11 08:50:37;;;;;;;;;37.25;25.75;;;;;0.28;62.77;100649.03;5054061;28;45320;-46
2022/12/11 08:53:03;;;;;;;;;35.75;26.25;;;;;0.28;62.75;100649.03;5059254;28;45417;-46
2022/12/11 08:55:28;;;;;;;;;36.00;27.00;;;;;0.25;62.56;100648.97;5059175;28;45243;-47
2022/12/11 08:57:54;;;;;;;;;35.25;26.00;;;;;0.26;62.55;100645.53;5059408;28;45193;-46
2022/12/11 09:00:19;;;;;;;;;38.50;29.50;;;;;0.28;62.91;100643.00;5059432;28;45571;-46
2022/12/11 09:02:44;;;;;;;;;34.50;30.75;;;;;0.27;62.81;100636.94;5060880;28;45511;-45
2022/12/11 09:05:10;;;;;;;;;36.25;32.25;;;;;0.30;62.69;100639.63;5062645;28;45324;-46
2022/12/11 09:07:37;;;;;;;;;26.50;23.00;;;;;0.32;62.77;100640.53;5063239;28;45173;-45
2022/12/11 09:10:05;;;;;;;;;38.25;31.75;;;;;0.31;62.86;100633.63;5062844;28;45406;-48
2022/12/11 09:12:32;;;;;;;;;32.00;28.00;;;;;0.37;62.89;100640.66;5062735;28;45389;-46
2022/12/11 09:14:57;;;;;;;;;32.25;29.00;;;;;0.38;62.93;100642.41;5062500;28;45292;-47
2022/12/11 09:17:22;;;;;;;;;37.50;31.75;;;;;0.40;62.90;100642.44;5062843;28;45185;-45
2022/12/11 09:19:48;;;;;;;;;35.25;30.00;;;;;0.39;62.84;100651.03;5078298;27;45311;-46
2022/12/11 09:22:13;;;;;;;;;34.75;29.00;;;;;0.37;62.78;100650.13;5062728;28;45442;-45
2022/12/11 09:24:39;;;;;;;;;41.00;34.25;;;;;0.38;62.80;100650.16;5062265;28;45323;-45
2022/12/11 09:27:04;;;;;;;;;40.25;31.25;;;;;0.39;62.96;100648.44;5078064;28;45259;-45
2022/12/11 09:29:31;;;;;;;;;30.00;21.50;;;;;0.35;63.00;100649.22;5062715;28;45298;-46
2022/12/11 09:31:56;;;;;;;;;41.75;32.75;;;;;0.39;62.91;100646.75;5062584;28;45504;-47
2022/12/11 09:34:22;;;;;;;;;39.75;31.50;;;;;0.37;62.88;100644.97;5062341;28;46038;-45
2022/12/11 09:36:47;;;;;;;;;31.00;26.25;;;;;0.32;62.82;100645.69;5062442;28;45275;-45
2022/12/11 09:39:14;;;;;;;;;36.25;30.50;;;;;0.34;62.76;100642.28;5062389;28;45343;-44
2022/12/11 09:41:58;;;;;;;;;34.25;31.00;;;;;0.31;62.68;100638.81;5062216;27;45474;-44
2022/12/11 09:44:30;;;;;;;;;39.75;36.50;;;;;0.35;62.85;100654.38;5061989;28;46255;-46
2022/12/11 09:46:56;;;;;;;;;35.50;30.00;;;;;0.38;62.97;100655.34;5062612;28;45300;-44
2022/12/11 09:49:37;;;;;;;;;35.75;33.00;;;;;0.33;63.12;100654.34;5054464;28;45639;-46
2022/12/11 09:52:14;;;;;;;;;33.25;31.50;;;;;0.39;62.72;100651.03;5061971;28;45400;-48
2022/12/11 09:54:46;;;;;;;;;33.50;27.25;;;;;0.36;62.74;100663.91;5061900;28;46174;-45
2022/12/11 09:57:37;;;;;;;;;36.50;33.00;;;;;0.39;62.96;100664.84;5061944;28;45369;-47
2022/12/11 10:00:11;;;;;;;;;41.50;36.00;;;;;0.46;62.86;100658.13;5062177;28;45356;-45
2022/12/11 10:03:02;;;;;;;;;35.25;30.75;;;;;0.51;62.85;100664.28;5062049;27;45415;-47
2022/12/11 10:05:44;;;;;;;;;32.75;27.50;;;;;0.54;62.63;100653.13;5054073;28;46054;-46
2022/12/11 10:08:37;;;;;;;;;35.50;26.50;;;;;0.50;62.75;100667.69;5061750;28;45281;-45
2022/12/11 10:11:44;;;;;;;;;33.75;27.75;;;;;0.52;62.39;100662.59;5061893;28;45370;-47
2022/12/11 10:14:32;;;;;;;;;34.25;28.25;;;;;0.53;62.91;100653.97;5076696;28;45350;-46
2022/12/11 10:17:03;;;;;;;;;35.50;31.00;;;;;0.59;62.73;100660.19;5061593;28;46202;-47
2022/12/11 10:19:31;;;;;;;;;27.25;21.25;;;;;0.58;62.89;100650.69;5061757;28;45312;-48
2022/12/11 10:21:58;;;;;;;;;29.75;25.00;;;;;0.64;62.83;100653.41;5061668;28;45407;-47
2022/12/11 10:24:26;;;;;;;;;43.50;31.75;;;;;0.67;62.98;100652.63;5061943;27;45466;-47
2022/12/11 10:26:59;;;;;;;;;27.50;23.75;;;;;0.70;62.69;100641.47;5061655;28;45331;-47
2022/12/11 10:29:24;;;;;;;;;38.75;33.00;;;;;0.72;62.92;100634.63;5061517;28;45327;-46
2022/12/11 10:31:59;;;;;;;;;30.00;25.00;;;;;0.81;62.81;100638.28;5061700;28;45184;-46
2022/12/11 10:34:33;;;;;;;;;32.50;23.75;;;;;0.87;62.46;100639.28;5061479;28;45181;-45
2022/12/11 10:36:59;;;;;;;;;35.25;32.00;;;;;0.87;62.54;100623.75;5061357;28;46082;-45
2022/12/11 10:39:24;;;;;;;;;33.00;29.00;;;;;0.91;62.75;100625.59;5061105;28;45238;-45
2022/12/11 10:41:52;;;;;;;;;37.50;32.00;;;;;0.97;62.80;100621.44;5061403;28;45208;-44
2022/12/11 10:44:24;;;;;;;;;28.75;26.75;;;;;1.02;62.53;100623.22;5061148;28;45596;-46
2022/12/11 10:47:08;;;;;;;;;33.00;28.25;;;;;1.02;62.57;100618.06;5061346;28;45258;-48
2022/12/11 10:49:35;;;;;;;;;44.00;31.25;;;;;1.01;62.74;100616.31;5065646;28;45328;-45
2022/12/11 10:52:08;;;;;;;;;37.75;33.00;;;;;1.03;62.53;100619.81;5059851;28;45299;-46
2022/12/11 10:54:39;;;;;;;;;37.00;29.25;;;;;1.09;62.62;100615.63;5061138;28;45216;-44
2022/12/11 10:57:08;;;;;;;;;43.00;31.50;;;;;1.15;62.56;100620.09;5060940;28;45394;-44
2022/12/11 10:59:45;;;;;;;;;36.00;31.50;;;;;1.16;62.71;100614.09;5061099;28;45248;-45
2022/12/11 11:02:20;;;;;;;;;34.25;29.75;;;;;1.21;62.79;100615.06;5061074;28;45244;-45
2022/12/11 11:04:45;;;;;;;;;37.00;30.50;;;;;1.27;62.78;100610.00;5061050;28;45399;-44
2022/12/11 11:07:12;;;;;;;;;33.00;26.75;;;;;1.31;62.71;100603.19;5060810;28;47102;-44
2022/12/11 11:09:38;;;;;;;;;28.50;28.50;;;;;1.37;62.66;100605.91;5060799;28;45264;-44
2022/12/11 11:12:18;;;;;;;;;40.75;37.25;;;;;1.43;62.59;100603.47;5060841;28;45444;-46
2022/12/11 11:14:43;;;;;;;;;35.00;30.50;;;;;1.48;62.57;100602.66;5059631;28;45375;-45
2022/12/11 11:17:14;;;;;;;;;32.75;31.25;;;;;1.54;62.46;100593.28;5060638;28;45840;-45
2022/12/11 11:19:40;;;;;;;;;37.50;30.00;;;;;1.53;62.76;100586.38;5076468;27;45381;-46
2022/12/11 11:22:16;;;;;;;;;31.00;25.25;;;;;1.59;62.58;100580.44;5059509;28;45404;-46
2022/12/11 11:24:45;;;;;;;;;57.75;42.50;;;;;1.66;62.57;100584.03;5060720;27;45465;-47
2022/12/11 11:27:32;;;;;;;;;40.50;31.25;;;;;1.72;62.63;100585.00;5060572;28;46209;-46
2022/12/11 11:30:01;;;;;;;;;36.50;30.25;;;;;1.74;62.82;100592.84;5060101;28;45323;-45